Asbury, Illinois
Current Conditions -  °F | °C
As of 4:55 PM on Thursday 27 Nov 2014 (Local Time) from KCUL Reporting Station
Scattered Clouds Scattered Clouds  
Wind Chill: 25°   Ceiling: Unl
Heat Index: 30°   Visibility: 10mi
Dew Point: 26°   Wind: 5mph
Humidity: 86%   Direction: 280°W
Pressure: 30.46"   Gusts: NA
Location:  37.8866°N, 88.266°W
Report Text: KCUL 272255Z AUTO 28004KT 10SM SCT037 M01/M03 A3046 RMK AO2 T10131034
Loading
Personal Weather Stations






























Interactive Weather Map New forecast layout! Learn more

10-Day Weather Forecast

Advertisements
Track Severe Weather on mobile